Time;durP1;ratioP1;P1;durP2;ratioP2;P2;SDS_P1;SDS_P2;PMS_P1;PMS_P2;Temp;Humidity;BMP_temperature;BMP_pressure;BME280_temperature;BME280_humidity;BME280_pressure;Samples;Min_cycle;Max_cycle;Signal;HPM_P1;HPM_P2
2021/06/08 00:01:54;;;;;;;12.32;6.78;;;;;;;14.69;nan;102145.38;5019069;28;20531;-72
2021/06/08 00:04:20;;;;;;;13.52;7.88;;;;;;;14.60;nan;102141.44;5021062;28;20061;-71
2021/06/08 00:06:45;;;;;;;16.40;7.28;;;;;;;14.57;nan;102136.53;5017436;28;20574;-71
2021/06/08 00:09:11;;;;;;;12.02;7.40;;;;;;;14.54;nan;102144.28;5018790;28;20021;-72
2021/06/08 00:11:36;;;;;;;11.13;6.90;;;;;;;14.50;nan;102143.94;5016719;28;20034;-72
2021/06/08 00:14:02;;;;;;;11.25;7.82;;;;;;;14.44;nan;102150.31;5018955;28;20116;-71
2021/06/08 00:16:28;;;;;;;17.23;7.70;;;;;;;14.40;nan;102154.50;5016266;28;20118;-72
2021/06/08 00:18:53;;;;;;;17.52;8.00;;;;;;;14.32;nan;102153.00;5018030;28;20384;-72
2021/06/08 00:21:19;;;;;;;14.48;7.05;;;;;;;14.23;nan;102154.44;5018362;28;20032;-71
2021/06/08 00:23:44;;;;;;;11.30;6.28;;;;;;;14.22;nan;102155.50;5016373;28;20033;-71
2021/06/08 00:26:10;;;;;;;14.05;7.20;;;;;;;14.18;nan;102160.56;5014331;28;20034;-71
2021/06/08 00:28:35;;;;;;;10.45;6.35;;;;;;;14.15;nan;102166.38;4999475;28;21135;-71
2021/06/08 00:31:01;;;;;;;9.18;6.40;;;;;;;14.15;nan;102158.31;5021163;28;20032;-71
2021/06/08 00:33:26;;;;;;;8.35;6.78;;;;;;;14.11;nan;102161.72;5019563;28;20021;-71
2021/06/08 00:35:52;;;;;;;8.48;6.43;;;;;;;14.13;nan;102159.59;5020033;28;20021;-71
2021/06/08 00:38:17;;;;;;;7.95;6.57;;;;;;;14.15;nan;102160.19;5022212;28;20112;-72
2021/06/08 00:40:44;;;;;;;10.23;6.72;;;;;;;14.14;nan;102162.06;5018363;28;20032;-71
2021/06/08 00:43:10;;;;;;;11.18;7.15;;;;;;;14.13;nan;102159.59;5021393;28;20057;-71
2021/06/08 00:45:36;;;;;;;8.32;7.13;;;;;;;14.07;nan;102158.69;5019958;28;20067;-71
2021/06/08 00:48:02;;;;;;;7.88;6.90;;;;;;;14.01;nan;102161.53;5018465;28;20032;-71
2021/06/08 00:50:28;;;;;;;7.95;7.07;;;;;;;13.93;nan;102159.16;5019239;28;20021;-72
2021/06/08 00:52:54;;;;;;;10.80;6.90;;;;;;;13.88;nan;102159.88;5009388;28;20605;-71
2021/06/08 00:55:20;;;;;;;10.55;7.20;;;;;;;13.81;nan;102157.28;5012728;28;20147;-71
2021/06/08 00:57:47;;;;;;;8.63;6.90;;;;;;;13.80;nan;102160.22;5019152;28;20163;-71
2021/06/08 01:00:13;;;;;;;9.07;7.63;;;;;;;13.75;nan;102165.50;5005822;28;20075;-71
2021/06/08 01:02:38;;;;;;;8.18;7.15;;;;;;;13.72;nan;102164.09;5018755;28;20435;-71
2021/06/08 01:05:07;;;;;;;10.63;8.00;;;;;;;13.68;nan;102165.63;5003612;28;20033;-71
2021/06/08 01:07:33;;;;;;;9.05;7.78;;;;;;;13.60;nan;102164.09;5000892;28;20512;-71
2021/06/08 01:09:59;;;;;;;9.77;7.47;;;;;;;13.58;nan;102162.69;5016630;28;20035;-71
2021/06/08 01:12:26;;;;;;;10.45;7.20;;;;;;;13.52;nan;102159.06;5018794;28;20021;-71
2021/06/08 01:14:53;;;;;;;10.27;8.27;;;;;;;13.52;nan;102158.25;5017655;28;20057;-71
2021/06/08 01:17:18;;;;;;;10.02;7.55;;;;;;;13.46;nan;102154.59;5016779;28;20025;-71
2021/06/08 01:19:45;;;;;;;9.13;8.02;;;;;;;13.44;nan;102154.00;5016699;28;20025;-71
2021/06/08 01:22:11;;;;;;;11.55;7.97;;;;;;;13.43;nan;102154.25;4998744;28;20033;-71
2021/06/08 01:24:37;;;;;;;9.23;6.88;;;;;;;13.40;nan;102157.41;4999439;28;20057;-71
2021/06/08 01:27:04;;;;;;;10.63;8.05;;;;;;;13.39;nan;102155.75;5018152;28;20026;-71
2021/06/08 01:29:30;;;;;;;10.23;9.07;;;;;;;13.34;nan;102151.09;5018849;28;20060;-71
2021/06/08 01:32:00;;;;;;;9.30;8.30;;;;;;;13.31;nan;102151.56;5018121;28;20025;-71
2021/06/08 01:34:26;;;;;;;14.32;9.85;;;;;;;13.23;nan;102151.88;5018866;28;20025;-71
2021/06/08 01:36:52;;;;;;;13.95;9.07;;;;;;;13.18;nan;102154.44;5000531;28;20038;-71
2021/06/08 01:39:18;;;;;;;17.38;8.65;;;;;;;13.13;nan;102155.13;5002857;28;20037;-71
2021/06/08 01:41:44;;;;;;;41.25;10.32;;;;;;;13.11;nan;102151.84;5016699;28;20409;-71
2021/06/08 01:44:13;;;;;;;27.25;9.10;;;;;;;13.08;nan;102148.75;5015195;28;20025;-71
2021/06/08 01:46:39;;;;;;;46.65;10.88;;;;;;;13.04;nan;102156.47;5016771;28;20903;-71
2021/06/08 01:49:04;;;;;;;53.33;10.85;;;;;;;13.00;nan;102156.13;5016726;28;20025;-71
2021/06/08 01:51:47;;;;;;;28.38;10.48;;;;;;;12.97;nan;102159.28;5000972;28;20399;-71
2021/06/08 01:54:39;;;;;;;16.50;9.25;;;;;;;12.90;nan;102152.34;5015363;28;20057;-71
2021/06/08 01:57:35;;;;;;;20.20;8.82;;;;;;;12.86;nan;102159.25;5018551;28;20022;-71
2021/06/08 02:00:06;;;;;;;13.70;8.70;;;;;;;12.84;nan;102158.66;5004051;28;20037;-71
2021/06/08 02:02:57;;;;;;;11.30;8.63;;;;;;;12.70;nan;102155.31;5001630;28;20025;-71
2021/06/08 02:05:47;;;;;;;9.60;7.90;;;;;;;12.68;nan;102155.53;5014818;28;20022;-71
2021/06/08 02:08:31;;;;;;;11.88;8.60;;;;;;;12.62;nan;102158.34;5000357;28;20025;-71
2021/06/08 02:11:03;;;;;;;13.00;9.50;;;;;;;12.53;nan;102155.13;5004823;28;20095;-72
2021/06/08 02:13:44;;;;;;;12.30;9.48;;;;;;;12.47;nan;102158.72;5005394;28;20583;-71
2021/06/08 02:16:16;;;;;;;10.63;7.82;;;;;;;12.46;nan;102158.94;5026619;28;20021;-71
2021/06/08 02:18:45;;;;;;;11.50;9.38;;;;;;;12.47;nan;102152.53;5007384;28;20025;-72
2021/06/08 02:21:11;;;;;;;14.65;9.57;;;;;;;12.49;nan;102161.19;5024099;28;20036;-71
2021/06/08 02:23:38;;;;;;;14.60;10.43;;;;;;;12.46;nan;102167.00;5019345;28;20093;-71
2021/06/08 02:26:05;;;;;;;13.57;9.85;;;;;;;12.42;nan;102168.53;5018910;28;20025;-71
2021/06/08 02:28:36;;;;;;;14.73;10.38;;;;;;;12.35;nan;102166.72;5023910;28;20498;-71
2021/06/08 02:31:04;;;;;;;14.07;9.18;;;;;;;12.32;nan;102169.03;5023354;28;20116;-71
2021/06/08 02:33:30;;;;;;;13.95;9.18;;;;;;;12.23;nan;102163.16;5021518;28;20029;-71
2021/06/08 02:35:57;;;;;;;14.32;9.82;;;;;;;12.20;nan;102160.06;5022507;28;20052;-71
2021/06/08 02:38:24;;;;;;;13.75;9.70;;;;;;;12.21;nan;102172.47;5021470;28;20200;-71
2021/06/08 02:40:51;;;;;;;14.68;10.57;;;;;;;12.19;nan;102166.50;5021347;28;20022;-71
2021/06/08 02:43:23;;;;;;;13.13;10.38;;;;;;;12.16;nan;102175.00;5004597;28;20028;-71
2021/06/08 02:45:50;;;;;;;16.77;10.38;;;;;;;12.12;nan;102174.63;5020376;28;20780;-71
2021/06/08 02:48:17;;;;;;;13.85;9.82;;;;;;;12.09;nan;102177.78;5022590;28;20025;-71
2021/06/08 02:50:45;;;;;;;13.70;10.70;;;;;;;12.04;nan;102177.63;5021538;28;20029;-71
2021/06/08 02:53:11;;;;;;;13.98;10.10;;;;;;;12.03;nan;102182.19;5020972;28;20033;-71
2021/06/08 02:55:37;;;;;;;13.93;10.55;;;;;;;12.02;nan;102185.88;5019849;28;20042;-71
2021/06/08 02:58:05;;;;;;;12.82;10.00;;;;;;;12.01;nan;102181.56;5022481;28;20041;-71
2021/06/08 03:00:31;;;;;;;13.98;10.45;;;;;;;12.03;nan;102181.38;5019843;28;20040;-71
2021/06/08 03:03:01;;;;;;;12.98;10.63;;;;;;;12.04;nan;102183.00;5021102;28;20029;-71
2021/06/08 03:05:29;;;;;;;11.48;9.68;;;;;;;12.06;nan;102187.09;5004425;28;20182;-71
2021/06/08 03:08:01;;;;;;;13.10;9.95;;;;;;;12.04;nan;102183.81;5019873;28;20068;-71
2021/06/08 03:10:31;;;;;;;14.00;10.55;;;;;;;12.09;nan;102193.91;5017555;28;20044;-71
2021/06/08 03:13:00;;;;;;;15.25;11.45;;;;;;;12.16;nan;102201.88;5022203;28;20190;-71
2021/06/08 03:15:42;;;;;;;15.90;11.73;;;;;;;12.21;nan;102205.56;5021897;28;20025;-71
2021/06/08 03:18:13;;;;;;;14.57;11.10;;;;;;;12.34;nan;102213.44;5021817;28;20080;-71
2021/06/08 03:20:48;;;;;;;16.88;11.60;;;;;;;12.40;nan;102214.44;5016283;28;20029;-71
2021/06/08 03:23:18;;;;;;;15.30;10.93;;;;;;;12.49;nan;102206.88;5020581;28;20021;-71
2021/06/08 03:25:46;;;;;;;15.13;11.73;;;;;;;12.55;nan;102208.66;5020701;28;20033;-71
2021/06/08 03:28:16;;;;;;;17.00;10.93;;;;;;;12.62;nan;102201.34;5021496;28;20029;-71
2021/06/08 03:30:43;;;;;;;14.32;11.20;;;;;;;12.69;nan;102210.16;5020329;28;20021;-71
2021/06/08 03:33:08;;;;;;;14.25;10.88;;;;;;;12.78;nan;102203.41;5015851;28;20028;-71
2021/06/08 03:35:35;;;;;;;13.63;10.60;;;;;;;12.89;nan;102208.00;5018652;28;20025;-71
2021/06/08 03:38:01;;;;;;;16.15;11.80;;;;;;;13.01;nan;102211.56;5020692;28;20033;-71
2021/06/08 03:40:28;;;;;;;20.35;11.50;;;;;;;13.13;nan;102208.13;5005459;28;20021;-71
2021/06/08 03:42:54;;;;;;;16.00;11.70;;;;;;;13.26;nan;102211.44;5020151;28;20715;-71
2021/06/08 03:45:20;;;;;;;15.25;12.57;;;;;;;13.38;nan;102211.47;5022648;28;20029;-71
2021/06/08 03:47:46;;;;;;;17.15;12.27;;;;;;;13.52;nan;102207.53;5015779;28;20410;-71
2021/06/08 03:50:15;;;;;;;17.17;12.32;;;;;;;13.69;nan;102206.84;5003208;28;20072;-71
2021/06/08 03:52:42;;;;;;;16.40;12.88;;;;;;;13.83;nan;102208.28;5020047;28;20049;-71
2021/06/08 03:55:09;;;;;;;15.82;13.02;;;;;;;14.01;nan;102202.75;5022174;28;20143;-71
2021/06/08 03:57:39;;;;;;;21.05;14.40;;;;;;;14.18;nan;102195.59;5019759;28;20040;-72
2021/06/08 04:00:08;;;;;;;18.45;14.63;;;;;;;14.39;nan;102196.03;5020981;28;20060;-71
2021/06/08 04:02:37;;;;;;;19.95;15.25;;;;;;;14.60;nan;102202.69;5000870;28;20038;-71
2021/06/08 04:05:03;;;;;;;17.67;13.65;;;;;;;14.80;nan;102194.97;5021453;28;20737;-72
2021/06/08 04:07:29;;;;;;;23.30;14.95;;;;;;;14.99;nan;102199.09;5020001;28;20095;-71
2021/06/08 04:09:55;;;;;;;19.73;14.88;;;;;;;15.10;nan;102192.84;5018972;28;20042;-71
2021/06/08 04:12:21;;;;;;;19.88;15.65;;;;;;;15.24;nan;102198.72;5021623;28;20021;-71
2021/06/08 04:14:48;;;;;;;21.75;15.60;;;;;;;15.32;nan;102201.03;5020489;28;20045;-71
2021/06/08 04:17:15;;;;;;;19.85;15.93;;;;;;;15.35;nan;102203.25;5020478;28;20026;-71
2021/06/08 04:19:41;;;;;;;23.08;16.25;;;;;;;15.46;nan;102198.03;5009344;28;20034;-71
2021/06/08 04:22:07;;;;;;;20.42;15.68;;;;;;;15.51;nan;102198.09;5020313;28;20480;-71
2021/06/08 04:24:32;;;;;;;22.05;15.88;;;;;;;15.59;nan;102203.13;5019608;28;20037;-71
2021/06/08 04:26:59;;;;;;;20.58;16.65;;;;;;;15.71;nan;102195.75;5017464;28;21003;-71
2021/06/08 04:29:26;;;;;;;21.52;15.52;;;;;;;15.81;nan;102195.09;5019580;28;20017;-71
2021/06/08 04:31:51;;;;;;;23.17;16.38;;;;;;;15.81;nan;102198.63;5001531;28;20153;-71
2021/06/08 04:34:20;;;;;;;19.48;16.15;;;;;;;15.69;nan;102203.28;5020883;28;20108;-71
2021/06/08 04:36:47;;;;;;;18.02;14.52;;;;;;;15.71;nan;102201.97;5016491;28;20029;-71
2021/06/08 04:39:12;;;;;;;16.25;13.10;;;;;;;15.81;nan;102204.03;5020886;28;20049;-71
2021/06/08 04:41:40;;;;;;;17.35;13.52;;;;;;;16.00;nan;102210.78;4997603;28;20095;-71
2021/06/08 04:44:07;;;;;;;18.45;14.15;;;;;;;16.22;nan;102199.19;5018006;28;20021;-71
2021/06/08 04:46:37;;;;;;;17.92;12.95;;;;;;;16.44;nan;102207.31;5013295;28;20108;-71
2021/06/08 04:49:03;;;;;;;20.48;13.57;;;;;;;16.63;nan;102203.19;5001440;28;20025;-71
2021/06/08 04:51:28;;;;;;;19.67;13.70;;;;;;;16.73;nan;102202.53;5002539;28;20025;-72
2021/06/08 04:53:54;;;;;;;16.67;13.52;;;;;;;16.76;nan;102210.16;5030266;28;20040;-72
2021/06/08 04:56:19;;;;;;;17.42;13.55;;;;;;;16.75;nan;102203.09;4998715;28;20021;-72
2021/06/08 04:58:45;;;;;;;18.27;14.25;;;;;;;16.90;nan;102205.97;5015955;28;20036;-72
2021/06/08 05:01:46;;;;;;;23.75;15.65;;;;;;;16.82;nan;102215.34;5015698;28;20037;-72
2021/06/08 05:04:17;;;;;;;18.40;14.75;;;;;;;17.10;nan;102217.00;5013939;28;20052;-72
2021/06/08 05:06:53;;;;;;;21.92;15.85;;;;;;;17.50;nan;102221.16;5010126;28;20084;-72
2021/06/08 05:09:24;;;;;;;18.92;15.27;;;;;;;17.83;nan;102219.28;5016262;28;20124;-72
2021/06/08 05:11:54;;;;;;;23.05;16.35;;;;;;;18.05;nan;102228.09;4999733;28;20063;-72
2021/06/08 05:14:21;;;;;;;27.88;19.17;;;;;;;18.32;nan;102226.09;5018626;28;20025;-73
2021/06/08 05:16:48;;;;;;;33.20;19.95;;;;;;;18.57;nan;102213.69;5015092;28;20069;-73
2021/06/08 05:19:16;;;;;;;33.05;20.13;;;;;;;18.70;nan;102224.09;5019929;28;20027;-73
2021/06/08 05:21:43;;;;;;;33.30;19.90;;;;;;;18.85;nan;102223.28;5018478;28;20626;-73
2021/06/08 05:24:13;;;;;;;33.47;21.13;;;;;;;18.91;nan;102223.06;4997340;28;20025;-72
2021/06/08 05:26:42;;;;;;;36.45;21.55;;;;;;;18.94;nan;102219.81;5017115;28;20032;-72
2021/06/08 05:29:09;;;;;;;34.83;21.50;;;;;;;18.96;nan;102217.63;5021137;28;20033;-72
2021/06/08 05:31:35;;;;;;;33.25;20.73;;;;;;;18.93;nan;102223.59;5015898;28;20112;-72
2021/06/08 05:34:01;;;;;;;29.48;20.13;;;;;;;18.81;nan;102225.72;5001303;28;20039;-72
2021/06/08 05:36:32;;;;;;;36.25;20.02;;;;;;;18.61;nan;102221.03;5016388;28;20037;-72
2021/06/08 05:38:57;;;;;;;34.63;20.42;;;;;;;18.65;nan;102218.63;5020250;28;20557;-72
2021/06/08 05:41:23;;;;;;;29.73;20.15;;;;;;;18.81;nan;102214.88;5018716;28;20040;-72
2021/06/08 05:43:48;;;;;;;34.63;20.88;;;;;;;18.98;nan;102220.88;4999826;28;20036;-72
2021/06/08 05:46:14;;;;;;;34.53;19.70;;;;;;;19.05;nan;102219.84;4997909;28;20028;-72
2021/06/08 05:48:40;;;;;;;35.85;22.27;;;;;;;19.06;nan;102226.91;4998539;28;20597;-72
2021/06/08 05:51:08;;;;;;;33.92;22.80;;;;;;;19.10;nan;102222.56;5017689;28;20064;-72
2021/06/08 05:53:43;;;;;;;38.15;25.65;;;;;;;19.15;nan;102223.38;5016080;28;20041;-72
2021/06/08 05:56:09;;;;;;;;;;;;;;;19.17;nan;102228.53;5015282;28;20025;-72
2021/06/08 05:58:36;;;;;;;36.97;24.42;;;;;;;19.63;nan;102226.69;5015716;28;19967;-72
2021/06/08 06:01:11;;;;;;;31.27;22.17;;;;;;;19.66;nan;102226.13;5013607;28;20560;-72
2021/06/08 06:03:39;;;;;;;34.28;22.83;;;;;;;19.71;nan;102225.31;5005435;28;20148;-73
2021/06/08 06:06:07;;;;;;;32.08;22.45;;;;;;;19.74;nan;102220.13;5013061;28;20063;-72
2021/06/08 06:08:32;;;;;;;33.10;22.92;;;;;;;19.97;nan;102220.66;5011866;28;20044;-72
2021/06/08 06:11:00;;;;;;;27.05;20.70;;;;;;;20.04;nan;102224.72;5008117;28;20033;-72
2021/06/08 06:13:33;;;;;;;29.23;22.45;;;;;;;20.21;nan;102221.69;5012743;28;20030;-73
2021/06/08 06:15:59;;;;;;;26.77;19.77;;;;;;;20.50;nan;102219.16;5013223;28;20075;-73
2021/06/08 06:18:24;;;;;;;24.65;18.98;;;;;;;20.68;nan;102215.00;5010180;28;20492;-73
2021/06/08 06:20:53;;;;;;;25.60;18.73;;;;;;;21.10;nan;102214.44;5015655;28;20117;-72
2021/06/08 06:23:21;;;;;;;25.45;18.15;;;;;;;21.35;nan;102218.91;5016502;28;20029;-73
2021/06/08 06:25:47;;;;;;;22.83;17.92;;;;;;;21.17;nan;102223.09;5014379;28;20040;-72
2021/06/08 06:28:18;;;;;;;21.33;16.92;;;;;;;21.31;nan;102220.59;5013405;28;20550;-73
2021/06/08 06:30:45;;;;;;;20.45;16.35;;;;;;;21.40;nan;102218.91;5013834;28;20044;-73
2021/06/08 06:33:12;;;;;;;18.90;15.45;;;;;;;21.45;nan;102224.31;5020313;28;20546;-74
2021/06/08 06:35:37;;;;;;;19.40;15.43;;;;;;;21.75;nan;102222.41;5017051;28;20116;-73
2021/06/08 06:38:06;;;;;;;19.17;15.68;;;;;;;21.93;nan;102224.41;5018294;28;20029;-73
2021/06/08 06:40:34;;;;;;;18.20;15.10;;;;;;;22.02;nan;102225.38;5015776;28;20033;-73
2021/06/08 06:43:03;;;;;;;19.75;15.45;;;;;;;21.74;nan;102224.31;5012219;28;20030;-73
2021/06/08 06:45:30;;;;;;;15.90;13.27;;;;;;;21.97;nan;102225.44;5014488;28;20116;-73
2021/06/08 06:48:04;;;;;;;16.05;13.25;;;;;;;22.24;nan;102224.91;5017503;28;20143;-73
2021/06/08 06:50:39;;;;;;;19.25;14.13;;;;;;;22.42;nan;102226.84;5016382;28;20099;-73
2021/06/08 06:53:05;;;;;;;14.95;12.18;;;;;;;22.43;nan;102228.47;5015583;28;20108;-73
2021/06/08 06:55:32;;;;;;;17.23;12.80;;;;;;;22.19;nan;102222.25;5001850;28;20030;-73
2021/06/08 06:57:59;;;;;;;14.35;11.68;;;;;;;22.37;nan;102223.38;5015283;28;20033;-73
2021/06/08 07:00:26;;;;;;;13.68;11.73;;;;;;;22.23;nan;102224.09;5023333;28;20022;-73
2021/06/08 07:02:55;;;;;;;12.80;11.00;;;;;;;22.56;nan;102233.25;5022327;28;20060;-73
2021/06/08 07:05:23;;;;;;;12.77;9.35;;;;;;;22.62;nan;102231.25;5022523;28;20036;-73
2021/06/08 07:07:50;;;;;;;12.32;9.68;;;;;;;22.73;nan;102232.75;5019031;28;20082;-73
2021/06/08 07:10:19;;;;;;;12.35;8.15;;;;;;;22.78;nan;102229.13;5005334;28;20434;-73
2021/06/08 07:12:47;;;;;;;10.30;7.85;;;;;;;22.93;nan;102226.22;5019488;28;20033;-73
2021/06/08 07:15:14;;;;;;;9.35;8.35;;;;;;;23.15;nan;102226.41;5024840;28;20611;-74
2021/06/08 07:17:40;;;;;;;9.18;7.70;;;;;;;23.30;nan;102225.38;5001380;28;20094;-73
2021/06/08 07:20:07;;;;;;;13.20;7.97;;;;;;;23.57;nan;102215.66;5004833;28;20473;-73
2021/06/08 07:22:34;;;;;;;27.63;7.65;;;;;;;23.78;nan;102219.66;5020980;28;20082;-73
2021/06/08 07:25:02;;;;;;;8.02;6.45;;;;;;;23.64;nan;102224.28;5021134;28;20403;-73
2021/06/08 07:27:27;;;;;;;17.88;6.85;;;;;;;23.80;nan;102218.25;5020106;28;20025;-73
2021/06/08 07:29:53;;;;;;;12.70;6.28;;;;;;;24.04;nan;102220.78;5021641;28;20507;-73
2021/06/08 07:32:43;;;;;;;20.00;6.35;;;;;;;24.10;nan;102221.53;5022056;28;20017;-73
2021/06/08 07:35:31;;;;;;;13.75;6.07;;;;;;;24.22;nan;102221.81;5019754;28;20029;-73
2021/06/08 07:38:00;;;;;;;8.30;5.88;;;;;;;24.43;nan;102219.53;5021592;28;20025;-73
2021/06/08 07:40:28;;;;;;;7.10;6.20;;;;;;;24.45;nan;102219.22;5020136;28;20037;-73
2021/06/08 07:42:59;;;;;;;6.95;5.55;;;;;;;24.35;nan;102218.28;5021625;28;20021;-74
2021/06/08 07:45:32;;;;;;;9.60;5.78;;;;;;;24.65;nan;102216.03;5001992;28;20040;-73
2021/06/08 07:48:00;;;;;;;5.75;5.25;;;;;;;24.54;nan;102222.84;5020808;28;20084;-73
2021/06/08 07:50:31;;;;;;;5.20;4.70;;;;;;;24.57;nan;102214.00;5022316;28;20025;-74
2021/06/08 07:52:58;;;;;;;7.20;5.82;;;;;;;24.79;nan;102216.81;5022136;28;20021;-73
2021/06/08 07:55:24;;;;;;;8.10;6.03;;;;;;;24.88;nan;102225.91;5018906;28;20112;-73
2021/06/08 07:57:49;;;;;;;6.40;5.47;;;;;;;25.16;nan;102214.91;5002827;28;20037;-73
2021/06/08 08:00:16;;;;;;;5.55;4.85;;;;;;;25.36;nan;102219.88;5022703;28;20035;-74
2021/06/08 08:02:44;;;;;;;7.35;5.20;;;;;;;25.55;nan;102220.47;5000704;28;20083;-74
2021/06/08 08:05:14;;;;;;;6.63;5.88;;;;;;;25.55;nan;102217.72;5023276;28;20033;-74
2021/06/08 08:07:40;;;;;;;7.13;5.82;;;;;;;25.30;nan;102218.34;5021315;28;20116;-73
2021/06/08 08:10:06;;;;;;;9.05;4.78;;;;;;;25.48;nan;102214.59;5018614;28;20030;-73
2021/06/08 08:12:41;;;;;;;5.75;4.85;;;;;;;25.37;nan;102216.00;5017551;28;20071;-73
2021/06/08 08:15:09;;;;;;;6.13;5.03;;;;;;;25.05;nan;102213.50;5021092;28;20443;-74
2021/06/08 08:17:36;;;;;;;8.45;5.07;;;;;;;25.02;nan;102214.13;5002977;28;20037;-74
2021/06/08 08:20:05;;;;;;;7.20;5.13;;;;;;;24.71;nan;102209.31;5021150;28;20076;-74
2021/06/08 08:22:31;;;;;;;7.38;5.50;;;;;;;24.90;nan;102218.19;5018357;28;20034;-74
2021/06/08 08:24:56;;;;;;;6.25;4.97;;;;;;;25.39;nan;102219.25;5019723;28;20072;-74
2021/06/08 08:27:24;;;;;;;8.00;5.20;;;;;;;25.50;nan;102226.09;5016908;28;20049;-74
2021/06/08 08:29:49;;;;;;;6.32;4.90;;;;;;;25.80;nan;102220.94;5002243;28;20040;-74
2021/06/08 08:32:15;;;;;;;6.50;5.38;;;;;;;25.90;nan;102217.94;5022072;28;20033;-74
2021/06/08 08:34:44;;;;;;;5.82;5.22;;;;;;;25.49;nan;102213.47;5020505;28;20438;-74
2021/06/08 08:37:10;;;;;;;7.05;4.95;;;;;;;25.81;nan;102214.34;5018913;28;20438;-74
2021/06/08 08:39:36;;;;;;;7.28;5.60;;;;;;;26.03;nan;102219.78;5002282;28;20025;-74
2021/06/08 08:42:02;;;;;;;8.55;5.32;;;;;;;26.08;nan;102222.38;5021176;28;20557;-74
2021/06/08 08:44:27;;;;;;;6.78;5.85;;;;;;;26.19;nan;102226.44;5017222;28;20103;-74
2021/06/08 08:46:53;;;;;;;6.28;5.00;;;;;;;26.65;nan;102216.88;5022362;28;20087;-74
2021/06/08 08:49:19;;;;;;;6.13;5.53;;;;;;;26.98;nan;102216.44;5021667;28;20021;-74
2021/06/08 08:51:48;;;;;;;6.15;5.03;;;;;;;27.00;nan;102217.75;5019309;28;20025;-74
2021/06/08 08:54:19;;;;;;;6.25;5.63;;;;;;;27.15;nan;102221.94;5018570;28;20039;-74
2021/06/08 08:56:46;;;;;;;6.53;5.82;;;;;;;27.30;nan;102207.69;5019121;28;20179;-74
2021/06/08 08:59:14;;;;;;;7.22;6.53;;;;;;;27.31;nan;102214.81;5021829;28;20476;-74
2021/06/08 09:01:43;;;;;;;7.03;5.78;;;;;;;27.43;nan;102211.38;5021626;28;20072;-74
2021/06/08 09:04:10;;;;;;;9.35;6.93;;;;;;;27.46;nan;102216.22;5018999;28;20475;-74
2021/06/08 09:06:36;;;;;;;9.50;6.55;;;;;;;27.45;nan;102211.03;5019397;28;20546;-74
2021/06/08 09:09:05;;;;;;;6.18;5.57;;;;;;;27.59;nan;102215.22;5017214;28;21871;-74
2021/06/08 09:11:39;;;;;;;7.60;5.40;;;;;;;27.71;nan;102211.81;5001825;28;20062;-74
2021/06/08 09:14:07;;;;;;;5.85;5.35;;;;;;;27.86;nan;102210.47;5018857;28;20049;-74
2021/06/08 09:16:33;;;;;;;7.32;5.53;;;;;;;28.01;nan;102204.44;5018124;28;20056;-74
2021/06/08 09:19:07;;;;;;;6.63;5.57;;;;;;;28.03;nan;102210.41;5020496;28;20026;-74
2021/06/08 09:21:37;;;;;;;6.47;5.47;;;;;;;28.14;nan;102205.31;5017790;28;20044;-74
2021/06/08 09:24:17;;;;;;;6.28;4.95;;;;;;;28.10;nan;102213.44;5019805;28;20029;-74
2021/06/08 09:26:59;;;;;;;5.43;4.93;;;;;;;28.32;nan;102211.56;5019256;28;20025;-74
2021/06/08 09:29:28;;;;;;;6.85;4.80;;;;;;;28.38;nan;102204.75;5002823;28;20029;-74
2021/06/08 09:32:20;;;;;;;6.65;4.88;;;;;;;28.58;nan;102210.28;5018695;28;20543;-74
2021/06/08 09:34:54;;;;;;;6.88;4.80;;;;;;;28.69;nan;102204.34;5003277;28;20025;-74
2021/06/08 09:37:39;;;;;;;5.57;5.03;;;;;;;28.89;nan;102206.31;5020744;28;20021;-74
2021/06/08 09:40:20;;;;;;;5.03;4.53;;;;;;;29.11;nan;102207.94;5018091;28;20736;-74
2021/06/08 09:42:47;;;;;;;5.10;4.68;;;;;;;28.58;nan;102209.47;5000722;28;20022;-74
2021/06/08 09:45:23;;;;;;;6.05;4.85;;;;;;;28.26;nan;102213.72;5018250;28;20033;-74
2021/06/08 09:48:01;;;;;;;4.90;4.15;;;;;;;28.63;nan;102211.22;5019426;28;20033;-74
2021/06/08 09:50:33;;;;;;;5.00;4.50;;;;;;;28.86;nan;102204.22;5020188;28;20025;-74
2021/06/08 09:53:27;;;;;;;6.25;4.38;;;;;;;29.07;nan;102207.78;5018475;28;20416;-74
2021/06/08 09:56:07;;;;;;;6.80;4.18;;;;;;;29.21;nan;102203.91;5019675;28;20044;-74
2021/06/08 09:58:34;;;;;;;5.47;4.80;;;;;;;29.27;nan;102208.09;5018314;28;20037;-74
2021/06/08 10:01:23;;;;;;;5.05;4.55;;;;;;;29.52;nan;102204.28;5019703;28;20029;-74
2021/06/08 10:03:56;;;;;;;5.75;4.20;;;;;;;29.60;nan;102203.34;5013575;28;20100;-74
2021/06/08 10:06:34;;;;;;;5.45;4.15;;;;;;;29.86;nan;102205.03;5016901;28;20029;-74
2021/06/08 10:09:15;;;;;;;4.18;3.72;;;;;;;29.72;nan;102199.81;5002282;28;20030;-74
2021/06/08 10:11:42;;;;;;;6.63;4.13;;;;;;;29.36;nan;102197.75;5001452;28;20025;-74
2021/06/08 10:14:17;;;;;;;5.88;3.78;;;;;;;29.25;nan;102200.13;4998280;28;20036;-74
2021/06/08 10:16:43;;;;;;;11.13;4.25;;;;;;;29.39;nan;102202.59;5013209;28;20028;-74
2021/06/08 10:19:10;;;;;;;4.90;4.10;;;;;;;29.24;nan;102209.56;5012377;28;20399;-76
2021/06/08 10:21:47;;;;;;;4.25;3.40;;;;;;;29.34;nan;102198.09;5013527;28;20061;-74
2021/06/08 10:24:16;;;;;;;4.32;3.92;;;;;;;29.51;nan;102197.13;5011852;28;20056;-74
2021/06/08 10:26:50;;;;;;;4.40;3.65;;;;;;;29.88;nan;102197.19;5011230;28;20068;-74
2021/06/08 10:29:17;;;;;;;5.85;3.83;;;;;;;29.98;nan;102193.94;5011988;28;20022;-74
2021/06/08 10:31:43;;;;;;;7.85;3.58;;;;;;;30.07;nan;102194.69;5000135;28;20073;-74
2021/06/08 10:34:11;;;;;;;4.47;3.80;;;;;;;29.85;nan;102190.41;5013855;28;20033;-74
2021/06/08 10:36:40;;;;;;;5.55;3.80;;;;;;;29.60;nan;102189.53;5014714;28;20064;-74
2021/06/08 10:39:08;;;;;;;6.00;4.10;;;;;;;29.92;nan;102187.84;5019714;28;20030;-74
2021/06/08 10:41:39;;;;;;;4.82;3.70;;;;;;;30.26;nan;102192.13;5015195;28;20037;-74
2021/06/08 10:44:05;;;;;;;6.60;3.75;;;;;;;30.54;nan;102196.94;5020306;28;20091;-74
2021/06/08 10:46:44;;;;;;;4.68;3.55;;;;;;;30.51;nan;102200.38;5017845;28;21372;-74
2021/06/08 10:49:11;;;;;;;3.97;3.63;;;;;;;30.78;nan;102198.84;5016859;28;20044;-74
2021/06/08 10:51:37;;;;;;;3.92;3.55;;;;;;;30.52;nan;102191.75;5018132;28;20427;-74
2021/06/08 10:54:16;;;;;;;4.65;3.08;;;;;;;29.77;nan;102194.06;4998586;28;20108;-75
2021/06/08 10:56:57;;;;;;;3.92;2.97;;;;;;;29.10;nan;102187.00;5018818;28;20037;-75
2021/06/08 10:59:43;;;;;;;3.33;3.03;;;;;;;28.97;nan;102194.41;5018575;28;20096;-74
2021/06/08 11:02:09;;;;;;;6.15;3.30;;;;;;;29.52;nan;102187.72;5000745;28;20081;-74
2021/06/08 11:04:47;;;;;;;4.43;3.50;;;;;;;29.41;nan;102187.28;5018263;28;20060;-74
2021/06/08 11:07:12;;;;;;;3.97;3.55;;;;;;;30.09;nan;102186.84;4996915;28;20076;-74
2021/06/08 11:09:38;;;;;;;4.13;3.65;;;;;;;30.37;nan;102198.81;5012837;28;20033;-74
2021/06/08 11:12:07;;;;;;;4.93;3.40;;;;;;;30.50;nan;102193.22;5016521;28;20065;-74
2021/06/08 11:14:43;;;;;;;7.00;3.55;;;;;;;30.61;nan;102188.84;5015837;28;20044;-75
2021/06/08 11:17:31;;;;;;;6.28;3.85;;;;;;;30.49;nan;102195.19;5018242;28;20030;-75
2021/06/08 11:20:01;;;;;;;5.10;3.60;;;;;;;30.86;nan;102197.88;5019883;28;20037;-75
2021/06/08 11:22:33;;;;;;;6.18;3.58;;;;;;;30.92;nan;102194.53;5018352;28;20029;-75
2021/06/08 11:24:59;;;;;;;5.82;3.22;;;;;;;30.95;nan;102191.06;5018393;28;20056;-75
2021/06/08 11:27:57;;;;;;;4.13;3.72;;;;;;;31.27;nan;102188.41;5000581;28;21897;-75
2021/06/08 11:30:30;;;;;;;5.35;3.75;;;;;;;30.87;nan;102180.13;5014390;28;20116;-75
2021/06/08 11:32:56;;;;;;;5.90;3.55;;;;;;;30.77;nan;102195.28;5017417;28;20036;-75
2021/06/08 11:35:36;;;;;;;4.85;3.35;;;;;;;31.21;nan;102187.84;5015583;28;20045;-75
2021/06/08 11:38:06;;;;;;;4.22;3.70;;;;;;;31.50;nan;102181.09;5016292;28;20029;-75
2021/06/08 11:40:38;;;;;;;3.90;3.50;;;;;;;31.68;nan;102177.97;4998808;28;20533;-75
2021/06/08 11:43:09;;;;;;;6.03;3.75;;;;;;;31.58;nan;102180.09;5015702;28;20041;-75
2021/06/08 11:46:02;;;;;;;4.15;3.47;;;;;;;31.51;nan;102168.84;5008835;28;20040;-75